Weather History for Colby, KS

Change the Weather History Date:

Thursday, February 21, 2013

  Actual Average (KGLD) Record (KGLD)
Temperature  
Mean Temperature 18 °F 34 °F  
Max Temperature 23 °F 47 °F 73 °F (1995)
Min Temperature 14 °F 21 °F -5 °F (1953)
Degree Days  
Heating Degree Days 46 31  
Month to date heating degree days 705  
Since 1 July heating degree days 4208  
Cooling Degree Days 0 0  
Month to date cooling degree days 0  
Year to date cooling degree days 0  
Moisture  
Dew Point 17 °F    
Average Humidity 98    
Maximum Humidity 100    
Minimum Humidity 93    
Precipitation  
Precipitation 0.00 in 0.02 in 0.74 in (1931)
Month to date precipitation 0.34  
Year to date precipitation 0.72  
Snow  
Snow 0.00 in 0.10 in - ()
Month to date snowfall 4.2  
Since 1 July snowfall 22.8  
Snow Depth -    
Sea Level Pressure  
Sea Level Pressure 29.82 in    
Wind  
Wind Speed 16 mph (NNE)    
Max Wind Speed 24 mph    
Max Gust Speed 28 mph    
Visibility 3 miles    
Events Snow    
T = Trace of Precipitation, MM = Missing Value Source: NWS Daily Summary

Daily Weather History Graph

Daily Weather History Graph

Search for Another Location

Airport:

Trip Planner

Search our weather history database for the weather conditions in past years. The results will help you decide how hot, cold, wet, or windy it might be!

Date:

Astronomy

Feb. 21, 2013 Rise Set
Actual Time 7:27 AM CST 6:28 PM CST
Civil Twilight 7:00 AM CST 6:55 PM CST
Nautical Twilight 6:29 AM CST 7:26 PM CST
Astronomical Twilight 5:58 AM CST 7:57 PM CST
Moon 2:45 PM CST (2/21) 4:33 AM CST (2/21)
Length of Visible Light 11h 54m
Length of Day
11h 00m
Waxing Gibbous, 84% of the Moon is Illuminated
Feb 21
Waxing Gibbous
Feb 25
Full
Mar 4
Last Quarter
Mar 11
New
Mar 19
First Quarter

Hourly Weather History & Observations

Time (CST) Temp. Windchill Dew Point Humidity Pressure Visibility Wind Dir Wind Speed Gust Speed Precip Events Conditions
12:15 AM 23.0 °F 7.6 °F 23.0 °F 100% 29.83 in 1.8 mi ESE 21.9 mph - N/A Snow Light Snow
12:35 AM 23.0 °F 7.6 °F 23.0 °F 100% 29.82 in 1.5 mi East 21.9 mph 27.6 mph N/A Snow Light Snow
12:55 AM 23.0 °F 8.0 °F 23.0 °F 100% 29.84 in 3.0 mi East 20.7 mph 26.5 mph N/A   Overcast
1:15 AM 21.2 °F 6.0 °F 21.2 °F 100% 29.82 in 1.8 mi East 19.6 mph 25.3 mph N/A Snow Light Snow
1:35 AM 21.2 °F 6.0 °F 21.2 °F 100% 29.83 in 1.0 mi East 19.6 mph - N/A Snow Light Snow
1:55 AM 21.2 °F 5.2 °F 21.2 °F 100% 29.80 in 0.8 mi East 21.9 mph 26.5 mph N/A Snow Light Snow
2:15 AM 21.2 °F 6.4 °F 21.2 °F 100% 29.79 in 1.0 mi East 18.4 mph - N/A Snow Light Snow
2:35 AM 21.2 °F 4.5 °F 21.2 °F 100% 29.81 in 1.8 mi East 24.2 mph - N/A Snow Light Snow
2:55 AM 19.4 °F 5.5 °F 19.4 °F 100% 29.80 in 4.0 mi East 15.0 mph - N/A   Overcast
3:15 AM 19.4 °F 5.5 °F 19.4 °F 100% 29.79 in 2.0 mi East 15.0 mph - N/A Snow Light Snow
3:35 AM 19.4 °F 5.5 °F 19.4 °F 100% 29.78 in 1.8 mi East 15.0 mph - N/A Snow Light Snow
3:55 AM 19.4 °F 5.0 °F 19.4 °F 100% 29.79 in 2.5 mi East 16.1 mph - N/A Snow Light Snow
4:15 AM 19.4 °F 6.0 °F 19.4 °F 100% 29.80 in 1.2 mi East 13.8 mph - N/A Snow Light Snow
4:35 AM 17.6 °F 2.2 °F 17.6 °F 100% 29.80 in 0.8 mi East 17.3 mph - N/A Snow Light Snow
5:15 AM 17.6 °F 4.3 °F 17.6 °F 100% 29.81 in 0.8 mi ENE 12.7 mph - N/A Snow Light Snow
5:35 AM 17.6 °F 4.3 °F 17.6 °F 100% 29.81 in 1.0 mi ENE 12.7 mph - N/A Snow Light Snow
5:55 AM 17.6 °F 4.3 °F 17.6 °F 100% 29.81 in 1.0 mi ENE 12.7 mph - N/A Snow Light Snow
6:15 AM 17.6 °F 2.7 °F 17.6 °F 100% 29.82 in 0.5 mi East 16.1 mph - N/A Snow Snow
6:35 AM 17.6 °F 4.3 °F 17.6 °F 100% 29.82 in 0.5 mi ENE 12.7 mph - N/A Snow Light Snow
6:55 AM 17.6 °F 3.2 °F 17.6 °F 100% 29.82 in 1.8 mi ENE 15.0 mph - N/A Snow Light Snow
7:15 AM 17.6 °F 2.7 °F 17.6 °F 100% 29.82 in 5.0 mi ENE 16.1 mph - N/A Snow Light Snow
7:35 AM 17.6 °F 4.3 °F 15.8 °F 93% 29.82 in 0.5 mi ENE 12.7 mph - N/A Snow Snow
7:55 AM 17.6 °F 3.7 °F 17.6 °F 100% 29.82 in 1.2 mi ENE 13.8 mph - N/A Snow Light Snow
8:15 AM 17.6 °F 5.7 °F 17.6 °F 100% 29.84 in 7.0 mi NE 10.4 mph - N/A Snow Light Snow
8:35 AM 17.6 °F 4.3 °F 17.6 °F 100% 29.82 in 10.0 mi NE 12.7 mph - N/A   Overcast
8:55 AM 17.6 °F 4.3 °F 17.6 °F 100% 29.82 in 10.0 mi NE 12.7 mph - N/A   Overcast
9:15 AM 17.6 °F 3.2 °F 17.6 °F 100% 29.82 in 3.0 mi NNE 15.0 mph - N/A Snow Light Snow
9:35 AM 17.6 °F 3.7 °F 17.6 °F 100% 29.81 in 3.0 mi NNE 13.8 mph - N/A Snow Light Snow
10:15 AM 17.6 °F 2.2 °F 17.6 °F 100% 29.82 in 2.0 mi NNE 17.3 mph 20.7 mph N/A Snow Light Snow
10:35 AM 17.6 °F 3.7 °F 17.6 °F 100% 29.82 in 1.2 mi NNE 13.8 mph - N/A Snow Light Snow
10:55 AM 17.6 °F 3.2 °F 15.8 °F 93% 29.81 in 1.2 mi NNE 15.0 mph - N/A Snow Light Snow
11:15 AM 17.6 °F 1.7 °F 15.8 °F 93% 29.82 in 0.8 mi NNE 18.4 mph - N/A Snow Light Snow
11:35 AM 17.6 °F 1.7 °F 15.8 °F 93% 29.82 in 1.0 mi NNE 18.4 mph - N/A Snow Light Snow
11:55 AM 17.6 °F 3.2 °F 15.8 °F 93% 29.82 in 0.5 mi North 15.0 mph - N/A Snow Light Snow
12:15 PM 17.6 °F 2.7 °F 15.8 °F 93% 29.82 in 0.5 mi North 16.1 mph - N/A Snow Light Snow
12:35 PM 17.6 °F 2.7 °F 15.8 °F 93% 29.81 in 0.8 mi North 16.1 mph 23.0 mph N/A Snow Light Snow
12:55 PM 17.6 °F 2.7 °F 15.8 °F 93% 29.81 in 1.0 mi North 16.1 mph - N/A Snow Light Snow
1:15 PM 17.6 °F 2.7 °F 15.8 °F 93% 29.81 in 1.0 mi North 16.1 mph - N/A Snow Light Snow
1:35 PM 17.6 °F 3.2 °F 17.6 °F 100% 29.81 in 1.2 mi North 15.0 mph - N/A Snow Light Snow
1:55 PM 17.6 °F 5.0 °F 17.6 °F 100% 29.81 in 1.2 mi North 11.5 mph - N/A Snow Light Snow
2:15 PM 17.6 °F 5.0 °F 17.6 °F 100% 29.80 in 1.2 mi North 11.5 mph - N/A Snow Light Snow
2:35 PM 17.6 °F 4.3 °F 17.6 °F 100% 29.79 in 1.5 mi North 12.7 mph - N/A Snow Light Snow
2:55 PM 17.6 °F 4.3 °F 17.6 °F 100% 29.79 in 1.0 mi North 12.7 mph - N/A Snow Light Snow
3:15 PM 17.6 °F 3.2 °F 15.8 °F 93% 29.79 in 0.8 mi North 15.0 mph - N/A Snow Light Snow
3:35 PM 17.6 °F 3.7 °F 17.6 °F 100% 29.79 in 1.2 mi North 13.8 mph 18.4 mph N/A Snow Light Snow
3:55 PM 17.6 °F 3.7 °F 17.6 °F 100% 29.79 in 1.0 mi North 13.8 mph - N/A Snow Light Snow
4:15 PM 17.6 °F 3.2 °F 17.6 °F 100% 29.79 in 1.5 mi North 15.0 mph - N/A Snow Light Snow
4:35 PM 17.6 °F 5.0 °F 17.6 °F 100% 29.80 in 1.8 mi North 11.5 mph - N/A Snow Light Snow
4:55 PM 17.6 °F 4.3 °F 17.6 °F 100% 29.80 in 1.5 mi North 12.7 mph - N/A Snow Light Snow
5:15 PM 17.6 °F 3.7 °F 17.6 °F 100% 29.80 in 1.5 mi North 13.8 mph - N/A Snow Light Snow
5:35 PM 17.6 °F 3.7 °F 17.6 °F 100% 29.80 in 1.2 mi North 13.8 mph - N/A Snow Light Snow
5:55 PM 17.6 °F 3.2 °F 17.6 °F 100% 29.81 in 1.5 mi North 15.0 mph - N/A Snow Light Snow
6:15 PM 17.6 °F 3.7 °F 17.6 °F 100% 29.81 in 1.8 mi North 13.8 mph - N/A Snow Light Snow
6:35 PM 17.6 °F 4.3 °F 17.6 °F 100% 29.82 in 1.8 mi North 12.7 mph - N/A Snow Light Snow
6:55 PM 17.6 °F 4.3 °F 17.6 °F 100% 29.82 in 2.5 mi North 12.7 mph - N/A Snow Light Snow
7:15 PM 17.6 °F 3.7 °F 17.6 °F 100% 29.84 in 2.5 mi NNE 13.8 mph - N/A Snow Light Snow
7:35 PM 17.6 °F 5.0 °F 17.6 °F 100% 29.84 in 2.5 mi North 11.5 mph - N/A Snow Light Snow
7:55 PM 17.6 °F 4.3 °F 17.6 °F 100% 29.86 in 2.5 mi North 12.7 mph 17.3 mph N/A Snow Light Snow
8:15 PM 17.6 °F 5.0 °F 15.8 °F 93% 29.86 in 2.0 mi North 11.5 mph - N/A Snow Light Snow
8:35 PM 15.8 °F 1.4 °F 15.8 °F 100% 29.87 in 4.0 mi North 13.8 mph - N/A Snow Light Snow
8:55 PM 15.8 °F 4.2 °F 14.0 °F 93% 29.88 in 7.0 mi NNW 9.2 mph - N/A Snow Light Snow
9:15 PM 14.0 °F 1.2 °F 14.0 °F 100% 29.88 in 7.0 mi NNW 10.4 mph - N/A Snow Light Snow
9:35 PM 14.0 °F 2.0 °F 14.0 °F 100% 29.89 in 10.0 mi NW 9.2 mph - N/A   Overcast
9:55 PM 15.8 °F 3.4 °F 14.0 °F 93% 29.90 in 10.0 mi NNW 10.4 mph - N/A Snow Light Snow
10:15 PM 15.8 °F 4.2 °F 14.0 °F 93% 29.90 in 4.0 mi NW 9.2 mph - N/A Snow Light Snow
10:35 PM 15.8 °F 3.4 °F 15.8 °F 100% 29.90 in 3.0 mi NW 10.4 mph - N/A Snow Light Snow
10:55 PM 15.8 °F 3.4 °F 14.0 °F 93% 29.89 in 4.0 mi NNW 10.4 mph - N/A Snow Light Snow
11:15 PM 14.0 °F 2.0 °F 14.0 °F 100% 29.89 in 7.0 mi NNW 9.2 mph - N/A   Overcast
11:35 PM 14.0 °F 2.0 °F 14.0 °F 100% 29.89 in 10.0 mi NNW 9.2 mph - N/A   Overcast
11:55 PM 14.0 °F 2.9 °F 14.0 °F 100% 29.89 in 10.0 mi NNW 8.1 mph - N/A   Overcast